createdAt,value
2022-10-18T00:01:16.777Z,37.13
2022-10-18T00:05:19.402Z,35.38
2022-10-18T00:09:21.024Z,36.42
2022-10-18T00:13:23.511Z,38.03
2022-10-18T00:17:25.664Z,35.90
2022-10-18T00:21:27.662Z,36.17
2022-10-18T00:25:29.391Z,35.97
2022-10-18T00:29:31.209Z,36.67
2022-10-18T00:33:32.811Z,36.63
2022-10-18T00:37:35.330Z,37.95
2022-10-18T00:41:38.023Z,38.42
2022-10-18T00:45:39.840Z,36.83
2022-10-18T00:49:52.408Z,39.70
2022-10-18T00:53:54.988Z,39.13
2022-10-18T00:57:57.693Z,37.83
2022-10-18T01:01:59.748Z,37.72
2022-10-18T01:06:01.625Z,35.20
2022-10-18T01:10:28.489Z,37.25
2022-10-18T01:14:42.838Z,37.65
2022-10-18T01:19:02.806Z,35.08
2022-10-18T01:23:36.766Z,35.25
2022-10-18T01:27:45.931Z,35.88
2022-10-18T01:31:59.598Z,34.80
2022-10-18T01:36:08.395Z,34.05
2022-10-18T01:40:14.364Z,34.72
2022-10-18T01:44:21.473Z,31.45
2022-10-18T01:48:23.693Z,34.05
2022-10-18T01:52:25.612Z,32.55
2022-10-18T01:56:31.071Z,32.17
2022-10-18T02:00:40.189Z,33.72
2022-10-18T02:04:54.031Z,30.23
2022-10-18T02:09:10.688Z,31.02
2022-10-18T02:13:16.270Z,30.67
2022-10-18T02:17:20.802Z,29.02
2022-10-18T02:21:23.178Z,27.70
2022-10-18T02:25:29.119Z,30.42
2022-10-18T02:29:32.527Z,27.30
2022-10-18T02:33:45.338Z,27.30
2022-10-18T02:37:50.158Z,28.92
2022-10-18T02:41:53.877Z,27.85
2022-10-18T02:45:55.858Z,27.20
2022-10-18T02:49:57.829Z,26.75
2022-10-18T02:53:59.475Z,25.00
2022-10-18T02:58:01.364Z,24.30
2022-10-18T03:02:02.974Z,24.17
2022-10-18T03:06:05.297Z,26.30
2022-10-18T03:10:07.482Z,25.73
2022-10-18T03:14:09.342Z,26.45
2022-10-18T03:18:11.324Z,27.08
2022-10-18T03:22:13.407Z,21.48
2022-10-18T03:26:15.062Z,25.67
2022-10-18T03:30:16.982Z,24.45
2022-10-18T03:34:18.599Z,25.88
2022-10-18T03:38:20.441Z,25.77
2022-10-18T03:42:22.279Z,27.50
2022-10-18T03:46:24.132Z,22.67
2022-10-18T03:50:25.732Z,20.10
2022-10-18T03:54:27.747Z,23.80
2022-10-18T03:58:29.551Z,25.95
2022-10-18T04:02:31.973Z,20.42
2022-10-18T04:06:33.916Z,23.65
2022-10-18T04:10:38.629Z,24.63
2022-10-18T04:14:40.220Z,22.92
2022-10-18T04:18:42.847Z,21.00
2022-10-18T04:22:44.513Z,22.75
2022-10-18T04:26:46.346Z,20.05
2022-10-18T04:30:52.726Z,22.60
2022-10-18T04:34:54.537Z,18.50
2022-10-18T04:38:56.144Z,21.60
2022-10-18T04:42:58.034Z,21.50
2022-10-18T04:46:59.702Z,21.85
2022-10-18T04:51:01.632Z,21.35
2022-10-18T04:55:03.564Z,21.70
2022-10-18T04:59:05.517Z,19.73
2022-10-18T05:03:08.330Z,20.05
2022-10-18T05:07:10.365Z,19.17
2022-10-18T05:11:12.211Z,22.23
2022-10-18T05:15:14.016Z,19.13
2022-10-18T05:19:15.961Z,19.88
2022-10-18T05:23:17.839Z,22.63
2022-10-18T05:27:19.800Z,20.50
2022-10-18T05:31:21.700Z,22.42
2022-10-18T05:35:23.442Z,22.77
2022-10-18T05:39:25.351Z,20.60
2022-10-18T05:43:29.015Z,22.23
2022-10-18T05:47:30.999Z,22.55
2022-10-18T05:51:32.829Z,21.92
2022-10-18T05:55:34.518Z,20.23
2022-10-18T05:59:36.428Z,19.65
2022-10-18T06:03:38.247Z,22.80
2022-10-18T06:07:40.067Z,22.42
2022-10-18T06:11:41.715Z,22.08
2022-10-18T06:15:43.558Z,22.38
2022-10-18T06:19:45.474Z,20.92
2022-10-18T06:23:51.498Z,19.42
2022-10-18T06:27:53.315Z,20.35
2022-10-18T06:31:55.315Z,20.02
2022-10-18T06:35:59.184Z,20.38
2022-10-18T06:40:01.017Z,19.42
2022-10-18T06:44:13.293Z,19.33
2022-10-18T06:48:15.695Z,18.35
2022-10-18T06:52:18.101Z,17.67
2022-10-18T06:56:19.938Z,16.70
2022-10-18T07:00:21.678Z,16.45
2022-10-18T07:04:23.525Z,16.33
2022-10-18T07:08:25.290Z,16.85
2022-10-18T07:12:28.363Z,14.95
2022-10-18T07:16:31.427Z,16.45
2022-10-18T07:20:34.178Z,15.68
2022-10-18T07:24:36.638Z,16.13
2022-10-18T07:28:38.507Z,15.13
2022-10-18T07:32:40.446Z,15.13
2022-10-18T07:36:42.541Z,14.38
2022-10-18T07:40:44.191Z,15.32
2022-10-18T07:44:46.069Z,15.48
2022-10-18T07:48:48.087Z,15.65
2022-10-18T07:52:50.022Z,14.52
2022-10-18T07:56:51.834Z,14.38
2022-10-18T08:00:54.004Z,15.13
2022-10-18T08:04:55.703Z,14.57
2022-10-18T08:08:57.811Z,15.05
2022-10-18T08:12:59.462Z,12.85
2022-10-18T08:17:01.332Z,13.70
2022-10-18T08:21:05.403Z,14.30
2022-10-18T08:25:07.787Z,13.77
2022-10-18T08:29:22.478Z,14.00
2022-10-18T08:33:25.951Z,12.70
2022-10-18T08:37:27.804Z,12.57
2022-10-18T08:41:38.914Z,14.77
2022-10-18T08:45:43.221Z,14.88
2022-10-18T08:49:50.527Z,14.00
2022-10-18T08:54:02.618Z,14.27
2022-10-18T08:58:18.617Z,15.15
2022-10-18T09:02:35.633Z,13.70
2022-10-18T09:06:49.147Z,15.65
2022-10-18T09:10:59.988Z,15.65
2022-10-18T09:15:20.457Z,16.02
2022-10-18T09:19:55.104Z,17.80
2022-10-18T09:24:11.229Z,15.38
2022-10-18T09:28:29.663Z,18.08
2022-10-18T09:32:49.075Z,15.00
2022-10-18T09:41:00.558Z,15.73
2022-10-18T09:49:15.698Z,17.15
2022-10-18T09:53:27.175Z,15.65
2022-10-18T09:57:51.184Z,17.35
2022-10-18T10:01:53.005Z,17.42
2022-10-18T10:06:12.919Z,17.25
2022-10-18T10:10:24.152Z,19.65
2022-10-18T10:14:28.467Z,17.15
2022-10-18T10:18:34.213Z,16.88
2022-10-18T10:22:38.872Z,17.20
2022-10-18T10:26:40.598Z,16.60
2022-10-18T10:30:42.700Z,16.30
2022-10-18T10:34:45.086Z,16.33
2022-10-18T10:39:06.711Z,17.70
2022-10-18T10:43:38.885Z,17.80
2022-10-18T10:47:41.841Z,17.50
2022-10-18T10:51:43.843Z,16.83
2022-10-18T10:55:46.298Z,15.75
2022-10-18T10:59:53.967Z,17.48
2022-10-18T11:03:59.501Z,15.97
2022-10-18T11:08:05.000Z,16.42
2022-10-18T11:12:36.574Z,18.42
2022-10-18T11:17:08.112Z,18.88
2022-10-18T11:21:18.839Z,17.38
2022-10-18T11:25:23.003Z,16.73
2022-10-18T11:29:49.665Z,18.17
2022-10-18T11:34:14.830Z,18.90
2022-10-18T11:38:49.030Z,16.95
2022-10-18T11:43:01.183Z,15.82
2022-10-18T11:47:16.781Z,18.92
2022-10-18T11:52:12.036Z,15.60
2022-10-18T11:56:37.120Z,17.65
2022-10-18T12:01:11.744Z,18.23
2022-10-18T12:05:30.021Z,17.13
2022-10-18T12:09:37.224Z,17.25
2022-10-18T12:14:03.802Z,16.98
2022-10-18T12:18:11.451Z,17.55
2022-10-18T12:22:24.517Z,19.17
2022-10-18T12:26:28.780Z,18.08
2022-10-18T12:30:42.375Z,19.38
2022-10-18T12:34:54.798Z,19.48
2022-10-18T12:39:07.114Z,16.58
2022-10-18T12:43:16.716Z,18.45
2022-10-18T12:47:23.475Z,17.65
2022-10-18T12:51:25.370Z,18.30
2022-10-18T12:55:31.744Z,18.38
2022-10-18T12:59:33.645Z,18.35
2022-10-18T13:03:41.105Z,18.85
2022-10-18T13:07:43.372Z,18.67
2022-10-18T13:11:45.494Z,17.33
2022-10-18T13:15:53.774Z,19.23
2022-10-18T13:20:26.448Z,18.30
2022-10-18T13:24:39.740Z,20.63
2022-10-18T13:29:21.015Z,37.75
2022-10-18T13:33:38.711Z,106.10
2022-10-18T13:37:40.792Z,55.83
2022-10-18T13:41:42.364Z,95.55
2022-10-18T13:45:56.204Z,26.48
2022-10-18T13:50:13.532Z,19.73
2022-10-18T13:54:33.441Z,20.85
2022-10-18T13:59:05.786Z,20.73
2022-10-18T14:03:55.685Z,19.40
2022-10-18T14:12:23.503Z,19.05
2022-10-18T14:16:38.746Z,21.58
2022-10-18T14:21:01.368Z,22.33
2022-10-18T14:29:20.775Z,19.17
2022-10-18T14:33:33.237Z,20.05
2022-10-18T14:37:36.562Z,20.15
2022-10-18T14:41:48.553Z,22.17
2022-10-18T14:45:50.541Z,21.65
2022-10-18T14:49:57.791Z,21.35
2022-10-18T14:54:00.481Z,22.90
2022-10-18T14:58:02.799Z,22.83
2022-10-18T15:02:14.645Z,22.58
2022-10-18T15:06:19.751Z,23.70
2022-10-18T15:10:25.548Z,23.08
2022-10-18T15:14:28.780Z,22.85
2022-10-18T15:22:37.454Z,23.58
2022-10-18T15:26:45.047Z,13.77
2022-10-18T15:30:46.949Z,13.43
2022-10-18T15:34:48.849Z,12.18
2022-10-18T15:38:50.628Z,9.35
2022-10-18T15:42:55.156Z,7.95
2022-10-18T15:47:12.454Z,4.50
2022-10-18T15:51:49.969Z,3.55
2022-10-18T15:55:55.742Z,3.40
2022-10-18T16:00:02.137Z,4.38
2022-10-18T16:04:31.474Z,6.00
2022-10-18T16:08:40.636Z,7.90
2022-10-18T16:12:42.338Z,9.73
2022-10-18T16:16:45.283Z,12.82
2022-10-18T16:20:48.179Z,13.57
2022-10-18T16:24:50.115Z,16.02
2022-10-18T16:28:52.336Z,18.48
2022-10-18T16:32:54.254Z,15.98
2022-10-18T16:36:55.946Z,15.30
2022-10-18T16:40:58.084Z,17.98
2022-10-18T16:44:59.902Z,20.30
2022-10-18T16:49:02.642Z,19.30
2022-10-18T16:53:04.306Z,19.65
2022-10-18T16:57:06.371Z,17.63
2022-10-18T17:01:12.105Z,18.60
2022-10-18T17:05:14.919Z,16.60
2022-10-18T17:09:16.662Z,17.00
2022-10-18T17:13:19.076Z,21.52
2022-10-18T17:17:20.868Z,22.92
2022-10-18T17:21:23.553Z,29.65
2022-10-18T17:25:25.294Z,31.48
2022-10-18T17:29:27.236Z,30.10
2022-10-18T17:33:28.996Z,30.10
2022-10-18T17:37:31.087Z,31.50
2022-10-18T17:41:32.896Z,21.20
2022-10-18T17:45:35.057Z,18.00
2022-10-18T17:49:36.789Z,11.55
2022-10-18T17:53:39.024Z,9.07
2022-10-18T17:57:42.500Z,11.98
2022-10-18T18:01:44.426Z,11.63
2022-10-18T18:05:46.975Z,12.80
2022-10-18T18:09:48.897Z,8.50
2022-10-18T18:13:51.183Z,9.02
2022-10-18T18:17:57.110Z,7.95
2022-10-18T18:21:59.452Z,6.00
2022-10-18T18:26:01.302Z,6.78
2022-10-18T18:30:03.245Z,6.75
2022-10-18T18:34:09.582Z,7.18
2022-10-18T18:38:11.254Z,6.32
2022-10-18T18:42:13.084Z,6.78
2022-10-18T18:46:14.971Z,7.72
2022-10-18T18:50:16.981Z,11.40
2022-10-18T18:54:18.574Z,16.77
2022-10-18T18:58:20.711Z,11.75
2022-10-18T19:02:22.520Z,9.98
2022-10-18T19:06:26.610Z,10.10
2022-10-18T19:10:29.047Z,9.77
2022-10-18T19:14:30.982Z,9.30
2022-10-18T19:18:32.591Z,10.70
2022-10-18T19:22:34.486Z,12.50
2022-10-18T19:26:45.360Z,13.13
2022-10-18T19:30:50.089Z,12.88
2022-10-18T19:34:52.817Z,11.15
2022-10-18T19:38:54.677Z,10.48
2022-10-18T19:42:56.484Z,10.90
2022-10-18T19:46:59.137Z,12.40
2022-10-18T19:51:09.407Z,13.68
2022-10-18T19:55:11.648Z,10.98
2022-10-18T19:59:15.522Z,10.35
2022-10-18T20:03:17.402Z,11.68
2022-10-18T20:07:18.989Z,14.95
2022-10-18T20:11:23.771Z,43.42
2022-10-18T20:15:25.500Z,28.85
2022-10-18T20:19:27.322Z,16.25
2022-10-18T20:23:29.518Z,14.07
2022-10-18T20:27:32.121Z,13.10
2022-10-18T20:31:38.271Z,20.33
2022-10-18T20:35:40.401Z,29.58
2022-10-18T20:39:42.180Z,21.02
2022-10-18T20:43:44.407Z,19.48
2022-10-18T20:47:46.558Z,45.60
2022-10-18T20:51:48.441Z,40.88
2022-10-18T20:55:50.167Z,22.30
2022-10-18T20:59:52.044Z,16.67
2022-10-18T21:03:55.848Z,22.35
2022-10-18T21:07:58.373Z,31.25
2022-10-18T21:12:00.232Z,21.83
2022-10-18T21:16:03.666Z,45.88
2022-10-18T21:20:06.696Z,25.85
2022-10-18T21:24:08.824Z,39.97
2022-10-18T21:28:10.565Z,24.17
2022-10-18T21:32:12.421Z,19.05
2022-10-18T21:36:15.010Z,21.52
2022-10-18T21:40:17.121Z,24.45
2022-10-18T21:44:18.912Z,29.67
2022-10-18T21:52:27.620Z,24.75
2022-10-18T21:56:32.849Z,25.75
2022-10-18T22:00:34.724Z,26.17
2022-10-18T22:04:36.838Z,26.45
2022-10-18T22:08:38.751Z,29.42
2022-10-18T22:12:40.697Z,26.17
2022-10-18T22:16:42.399Z,27.95
2022-10-18T22:20:54.222Z,33.70
2022-10-18T22:24:56.144Z,27.35
2022-10-18T22:29:04.072Z,29.40
2022-10-18T22:33:05.756Z,29.60
2022-10-18T22:37:07.808Z,27.58
2022-10-18T22:41:11.477Z,29.75
2022-10-18T22:45:13.365Z,28.05
2022-10-18T22:49:15.303Z,28.00
2022-10-18T22:53:17.275Z,27.38
2022-10-18T22:57:19.027Z,28.15
2022-10-18T23:01:22.556Z,28.23
2022-10-18T23:05:24.273Z,26.67
2022-10-18T23:09:26.081Z,27.33
2022-10-18T23:13:27.839Z,28.10
2022-10-18T23:17:29.776Z,32.08
2022-10-18T23:21:33.461Z,29.55
2022-10-18T23:25:36.783Z,37.95
2022-10-18T23:29:38.464Z,32.92
2022-10-18T23:33:41.390Z,29.40
2022-10-18T23:37:43.251Z,29.08
2022-10-18T23:41:45.206Z,31.42
2022-10-18T23:49:55.617Z,27.08
2022-10-18T23:53:57.260Z,34.00
2022-10-18T23:57:59.207Z,27.75
